JST889 YBMK-YBBN
Flight info
| Callsign | JST889 |
|---|---|
| Flight time | 1h 5m |
| Altitude | 37000 |
| Route | MK V153 MUNAR Y61 RUROX Y177 BN |
| Aircraft | A320/M-SDE3FGHIRWY/LB1 |
Departure
| Time | 2026-05-06 09:38 |
|---|---|
| Airport | Mackay Airport (YBMK) |
Arrival
| Time | 2026-05-06 10:44 |
|---|---|
| Airport | Brisbane International Airport (YBBN) |
| Time | Latitude | Longitude | Altitude | Speed | Heading |
|---|---|---|---|---|---|
| 2026-05-06 08:28 | -21.17621 | 149.18285 | 25 ft | 0 kts | 287° |
| 2026-05-06 09:33 | -21.17604 | 149.18275 | 28 ft | 7 kts | 354° |
| 2026-05-06 09:33 | -21.17534 | 149.18270 | 31 ft | 11 kts | 343° |
| 2026-05-06 09:33 | -21.17492 | 149.18249 | 28 ft | 0 kts | 328° |
| 2026-05-06 09:34 | -21.17483 | 149.18243 | 29 ft | 4 kts | 329° |
| 2026-05-06 09:34 | -21.17437 | 149.18263 | 26 ft | 11 kts | 48° |
| 2026-05-06 09:34 | -21.17393 | 149.18337 | 26 ft | 9 kts | 58° |
| 2026-05-06 09:34 | -21.17354 | 149.18401 | 24 ft | 11 kts | 55° |
| 2026-05-06 09:35 | -21.17287 | 149.18401 | 26 ft | 11 kts | 327° |
| 2026-05-06 09:35 | -21.17211 | 149.18350 | 30 ft | 14 kts | 331° |
| 2026-05-06 09:35 | -21.17119 | 149.18286 | 25 ft | 17 kts | 327° |
| 2026-05-06 09:35 | -21.17009 | 149.18212 | 25 ft | 20 kts | 328° |
| 2026-05-06 09:36 | -21.16884 | 149.18128 | 24 ft | 23 kts | 327° |
| 2026-05-06 09:36 | -21.16742 | 149.18032 | 25 ft | 25 kts | 328° |
| 2026-05-06 09:36 | -21.16592 | 149.17931 | 27 ft | 27 kts | 328° |
| 2026-05-06 09:36 | -21.16434 | 149.17824 | 28 ft | 23 kts | 328° |
| 2026-05-06 09:37 | -21.16359 | 149.17741 | 28 ft | 11 kts | 322° |
| 2026-05-06 09:37 | -21.16344 | 149.17765 | 26 ft | 4 kts | 140° |
| 2026-05-06 09:37 | -21.16376 | 149.17784 | 29 ft | 7 kts | 148° |
| 2026-05-06 09:37 | -21.16432 | 149.17823 | 28 ft | 19 kts | 148° |
| 2026-05-06 09:38 | -21.16718 | 149.18015 | 24 ft | 83 kts | 147° |
| 2026-05-06 09:38 | -21.17375 | 149.18461 | 27 ft | 137 kts | 147° |
| 2026-05-06 09:38 | -21.18251 | 149.19034 | 452 ft | 143 kts | 149° |
| 2026-05-06 09:38 | -21.19082 | 149.19578 | 1074 ft | 143 kts | 147° |
| 2026-05-06 09:39 | -21.19929 | 149.20128 | 1693 ft | 142 kts | 148° |
| 2026-05-06 09:39 | -21.20803 | 149.20712 | 1962 ft | 159 kts | 147° |
| 2026-05-06 09:39 | -21.21798 | 149.21383 | 2128 ft | 180 kts | 147° |
| 2026-05-06 09:39 | -21.22944 | 149.22145 | 2283 ft | 207 kts | 147° |
| 2026-05-06 09:40 | -21.24350 | 149.22756 | 2639 ft | 229 kts | 164° |
| 2026-05-06 09:40 | -21.25977 | 149.23157 | 3127 ft | 249 kts | 166° |
| 2026-05-06 09:40 | -21.29443 | 149.23932 | 4686 ft | 263 kts | 167° |
| 2026-05-06 09:41 | -21.31240 | 149.24323 | 4951 ft | 265 kts | 167° |
| 2026-05-06 09:41 | -21.33045 | 149.24713 | 5037 ft | 265 kts | 167° |
| 2026-05-06 09:41 | -21.34850 | 149.25106 | 5050 ft | 264 kts | 167° |
| 2026-05-06 09:41 | -21.36671 | 149.25505 | 5369 ft | 270 kts | 167° |
| 2026-05-06 09:42 | -21.38503 | 149.25910 | 6334 ft | 270 kts | 167° |
| 2026-05-06 09:42 | -21.40353 | 149.26321 | 7177 ft | 273 kts | 167° |
| 2026-05-06 09:42 | -21.42231 | 149.26739 | 7968 ft | 278 kts | 167° |
| 2026-05-06 09:42 | -21.44140 | 149.27161 | 8767 ft | 282 kts | 168° |
| 2026-05-06 09:43 | -21.46079 | 149.27587 | 9555 ft | 286 kts | 168° |
| 2026-05-06 09:43 | -21.48017 | 149.28016 | 10252 ft | 293 kts | 169° |
| 2026-05-06 09:43 | -21.50078 | 149.28553 | 10481 ft | 316 kts | 162° |
| 2026-05-06 09:43 | -21.52213 | 149.29428 | 10665 ft | 339 kts | 159° |
| 2026-05-06 09:44 | -21.54445 | 149.30366 | 11119 ft | 349 kts | 159° |
| 2026-05-06 09:44 | -21.56730 | 149.31327 | 11653 ft | 357 kts | 159° |
| 2026-05-06 09:44 | -21.59061 | 149.32307 | 12178 ft | 364 kts | 160° |
| 2026-05-06 09:44 | -21.61445 | 149.33307 | 12690 ft | 371 kts | 160° |
| 2026-05-06 09:45 | -21.63871 | 149.34324 | 13189 ft | 378 kts | 160° |
| 2026-05-06 09:45 | -21.66314 | 149.35352 | 13668 ft | 385 kts | 160° |
| 2026-05-06 09:45 | -21.68827 | 149.36410 | 14115 ft | 390 kts | 160° |
| 2026-05-06 09:45 | -21.71368 | 149.37479 | 14591 ft | 394 kts | 160° |
| 2026-05-06 09:46 | -21.73933 | 149.38558 | 15089 ft | 397 kts | 161° |
| 2026-05-06 09:46 | -21.76517 | 149.39644 | 15598 ft | 401 kts | 161° |
| 2026-05-06 09:46 | -21.79117 | 149.40735 | 16099 ft | 404 kts | 161° |
| 2026-05-06 09:46 | -21.81744 | 149.41839 | 16613 ft | 407 kts | 161° |
| 2026-05-06 09:47 | -21.84392 | 149.42951 | 17122 ft | 410 kts | 161° |
| 2026-05-06 09:47 | -21.87026 | 149.44057 | 17625 ft | 413 kts | 162° |
| 2026-05-06 09:47 | -21.89713 | 149.45189 | 18137 ft | 417 kts | 162° |
| 2026-05-06 09:47 | -21.92426 | 149.46334 | 18558 ft | 421 kts | 162° |
| 2026-05-06 09:48 | -21.95167 | 149.47493 | 19021 ft | 424 kts | 162° |
| 2026-05-06 09:48 | -21.97917 | 149.48659 | 19487 ft | 426 kts | 162° |
| 2026-05-06 09:48 | -22.00671 | 149.49827 | 19955 ft | 428 kts | 162° |
| 2026-05-06 09:48 | -22.03451 | 149.51006 | 20417 ft | 430 kts | 162° |
| 2026-05-06 09:49 | -22.06244 | 149.52189 | 20872 ft | 433 kts | 162° |
| 2026-05-06 09:49 | -22.09017 | 149.53359 | 21314 ft | 435 kts | 162° |
| 2026-05-06 09:49 | -22.11837 | 149.54551 | 21762 ft | 437 kts | 162° |
| 2026-05-06 09:49 | -22.14678 | 149.55753 | 22205 ft | 439 kts | 162° |
| 2026-05-06 09:50 | -22.17532 | 149.56957 | 22637 ft | 442 kts | 162° |
| 2026-05-06 09:50 | -22.20401 | 149.58169 | 23058 ft | 444 kts | 162° |
| 2026-05-06 09:50 | -22.23294 | 149.59396 | 23463 ft | 447 kts | 162° |
| 2026-05-06 09:50 | -22.26201 | 149.60631 | 23820 ft | 450 kts | 162° |
| 2026-05-06 09:51 | -22.29121 | 149.61869 | 24179 ft | 452 kts | 163° |
| 2026-05-06 09:51 | -22.32053 | 149.63112 | 24538 ft | 454 kts | 163° |
| 2026-05-06 09:51 | -22.34958 | 149.64345 | 24895 ft | 455 kts | 163° |
| 2026-05-06 09:51 | -22.37912 | 149.65599 | 25246 ft | 457 kts | 163° |
| 2026-05-06 09:52 | -22.40875 | 149.66855 | 25605 ft | 459 kts | 164° |
| 2026-05-06 09:52 | -22.43849 | 149.68118 | 25957 ft | 461 kts | 164° |
| 2026-05-06 09:52 | -22.46841 | 149.69393 | 26308 ft | 463 kts | 164° |
| 2026-05-06 09:52 | -22.49844 | 149.70673 | 26642 ft | 465 kts | 164° |
| 2026-05-06 09:53 | -22.52862 | 149.71958 | 27004 ft | 467 kts | 165° |
| 2026-05-06 09:53 | -22.55892 | 149.73249 | 27333 ft | 469 kts | 165° |
| 2026-05-06 09:53 | -22.58890 | 149.74526 | 27681 ft | 471 kts | 165° |
| 2026-05-06 09:53 | -22.61947 | 149.75831 | 28047 ft | 473 kts | 165° |
| 2026-05-06 09:54 | -22.65012 | 149.77140 | 28412 ft | 475 kts | 166° |
| 2026-05-06 09:54 | -22.68089 | 149.78453 | 28759 ft | 477 kts | 166° |
| 2026-05-06 09:54 | -22.71185 | 149.79772 | 29124 ft | 479 kts | 166° |
| 2026-05-06 09:54 | -22.74298 | 149.81095 | 29479 ft | 481 kts | 166° |
| 2026-05-06 09:55 | -22.76363 | 149.81975 | 29712 ft | 482 kts | 166° |
| 2026-05-06 09:55 | -22.80549 | 149.83762 | 30215 ft | 483 kts | 166° |
| 2026-05-06 09:55 | -22.82616 | 149.84650 | 30494 ft | 483 kts | 166° |
| 2026-05-06 09:55 | -22.86759 | 149.86426 | 30904 ft | 485 kts | 167° |
| 2026-05-06 09:56 | -22.89903 | 149.87773 | 31209 ft | 487 kts | 167° |
| 2026-05-06 09:56 | -22.93058 | 149.89124 | 31512 ft | 488 kts | 167° |
| 2026-05-06 09:56 | -22.96226 | 149.90483 | 31826 ft | 490 kts | 167° |
| 2026-05-06 09:56 | -22.99404 | 149.91846 | 32133 ft | 492 kts | 167° |
| 2026-05-06 09:57 | -23.01512 | 149.92750 | 32327 ft | 493 kts | 167° |
| 2026-05-06 09:57 | -23.04704 | 149.94123 | 32642 ft | 494 kts | 167° |
| 2026-05-06 09:57 | -23.07911 | 149.95503 | 32963 ft | 496 kts | 167° |
| 2026-05-06 09:57 | -23.11118 | 149.96878 | 33265 ft | 498 kts | 167° |
| 2026-05-06 09:58 | -23.14346 | 149.98259 | 33603 ft | 499 kts | 167° |
| 2026-05-06 09:58 | -23.18635 | 150.00095 | 33996 ft | 502 kts | 167° |
| 2026-05-06 09:58 | -23.20828 | 150.01035 | 34179 ft | 503 kts | 167° |
| 2026-05-06 09:58 | -23.24040 | 150.02419 | 34461 ft | 503 kts | 167° |
| 2026-05-06 09:59 | -23.27296 | 150.03828 | 34743 ft | 504 kts | 167° |
| 2026-05-06 09:59 | -23.30555 | 150.05236 | 35033 ft | 504 kts | 167° |
| 2026-05-06 09:59 | -23.33816 | 150.06645 | 35344 ft | 504 kts | 167° |
| 2026-05-06 09:59 | -23.37076 | 150.08051 | 35638 ft | 504 kts | 167° |
| 2026-05-06 10:00 | -23.41390 | 150.09909 | 36012 ft | 504 kts | 167° |
| 2026-05-06 10:00 | -23.43587 | 150.10858 | 36195 ft | 504 kts | 167° |
| 2026-05-06 10:00 | -23.47907 | 150.12733 | 36592 ft | 504 kts | 167° |
| 2026-05-06 10:00 | -23.50104 | 150.13686 | 36781 ft | 504 kts | 167° |
| 2026-05-06 10:01 | -23.53327 | 150.15083 | 37008 ft | 505 kts | 167° |
| 2026-05-06 10:01 | -23.56595 | 150.16493 | 37073 ft | 508 kts | 167° |
| 2026-05-06 10:01 | -23.63204 | 150.19342 | 37074 ft | 512 kts | 167° |
| 2026-05-06 10:02 | -23.69828 | 150.22211 | 37073 ft | 512 kts | 167° |
| 2026-05-06 10:02 | -23.76437 | 150.25092 | 37079 ft | 512 kts | 167° |
| 2026-05-06 10:03 | -23.83022 | 150.27955 | 37080 ft | 513 kts | 167° |
| 2026-05-06 10:03 | -23.89650 | 150.30836 | 37085 ft | 513 kts | 167° |
| 2026-05-06 10:04 | -23.96296 | 150.33720 | 37089 ft | 513 kts | 167° |
| 2026-05-06 10:04 | -24.02926 | 150.36617 | 37090 ft | 514 kts | 167° |
| 2026-05-06 10:05 | -24.09512 | 150.39499 | 37103 ft | 514 kts | 167° |
| 2026-05-06 10:05 | -24.16161 | 150.42404 | 37103 ft | 514 kts | 167° |
| 2026-05-06 10:06 | -24.22812 | 150.45311 | 37107 ft | 514 kts | 167° |
| 2026-05-06 10:06 | -24.29462 | 150.48228 | 37105 ft | 514 kts | 167° |
| 2026-05-06 10:07 | -24.36099 | 150.51149 | 37137 ft | 514 kts | 167° |
| 2026-05-06 10:07 | -24.42694 | 150.54035 | 37092 ft | 513 kts | 167° |
| 2026-05-06 10:08 | -24.49295 | 150.57060 | 37092 ft | 521 kts | 160° |
| 2026-05-06 10:08 | -24.55493 | 150.61391 | 37094 ft | 530 kts | 154° |
| 2026-05-06 10:09 | -24.61580 | 150.65845 | 37102 ft | 530 kts | 154° |
| 2026-05-06 10:09 | -24.67724 | 150.70337 | 37106 ft | 530 kts | 154° |
| 2026-05-06 10:10 | -24.73867 | 150.74823 | 37106 ft | 530 kts | 154° |
| 2026-05-06 10:10 | -24.80014 | 150.79322 | 37107 ft | 530 kts | 154° |
| 2026-05-06 10:11 | -24.86151 | 150.83825 | 37109 ft | 530 kts | 154° |
| 2026-05-06 10:11 | -24.92251 | 150.88300 | 37111 ft | 530 kts | 154° |
| 2026-05-06 10:12 | -24.98390 | 150.92810 | 37122 ft | 531 kts | 154° |
| 2026-05-06 10:12 | -25.04537 | 150.97326 | 37128 ft | 531 kts | 154° |
| 2026-05-06 10:13 | -25.10695 | 151.01858 | 37121 ft | 532 kts | 154° |
| 2026-05-06 10:13 | -25.16832 | 151.06389 | 37111 ft | 532 kts | 154° |
| 2026-05-06 10:14 | -25.22938 | 151.10904 | 37116 ft | 531 kts | 154° |
| 2026-05-06 10:14 | -25.29077 | 151.15443 | 37115 ft | 531 kts | 154° |
| 2026-05-06 10:15 | -25.35227 | 151.19983 | 37133 ft | 531 kts | 154° |
| 2026-05-06 10:15 | -25.41371 | 151.24535 | 37121 ft | 531 kts | 154° |
| 2026-05-06 10:16 | -25.47463 | 151.29059 | 37118 ft | 531 kts | 154° |
| 2026-05-06 10:16 | -25.53603 | 151.33617 | 37120 ft | 531 kts | 154° |
| 2026-05-06 10:17 | -25.59746 | 151.38179 | 37122 ft | 531 kts | 154° |
| 2026-05-06 10:17 | -25.65874 | 151.42744 | 36969 ft | 531 kts | 154° |
| 2026-05-06 10:18 | -25.68946 | 151.45038 | 36720 ft | 530 kts | 154° |
| 2026-05-06 10:18 | -25.71954 | 151.47288 | 36479 ft | 530 kts | 154° |
| 2026-05-06 10:18 | -25.74957 | 151.49671 | 36233 ft | 536 kts | 146° |
| 2026-05-06 10:18 | -25.77766 | 151.52420 | 35988 ft | 538 kts | 144° |
| 2026-05-06 10:19 | -25.80559 | 151.55191 | 35761 ft | 539 kts | 144° |
| 2026-05-06 10:19 | -25.83351 | 151.57970 | 35531 ft | 539 kts | 144° |
| 2026-05-06 10:19 | -25.86143 | 151.60752 | 35066 ft | 540 kts | 144° |
| 2026-05-06 10:19 | -25.88954 | 151.63550 | 34220 ft | 546 kts | 144° |
| 2026-05-06 10:20 | -25.91797 | 151.66376 | 33235 ft | 553 kts | 144° |
| 2026-05-06 10:20 | -25.94614 | 151.69180 | 32792 ft | 546 kts | 144° |
| 2026-05-06 10:20 | -25.97430 | 151.71990 | 32204 ft | 543 kts | 144° |
| 2026-05-06 10:20 | -26.00231 | 151.74787 | 31644 ft | 540 kts | 144° |
| 2026-05-06 10:21 | -26.03012 | 151.77563 | 31098 ft | 536 kts | 143° |
| 2026-05-06 10:21 | -26.05769 | 151.80318 | 30572 ft | 531 kts | 143° |
| 2026-05-06 10:21 | -26.08495 | 151.83040 | 30206 ft | 523 kts | 143° |
| 2026-05-06 10:21 | -26.11184 | 151.85728 | 29588 ft | 518 kts | 143° |
| 2026-05-06 10:22 | -26.13856 | 151.88395 | 28985 ft | 513 kts | 143° |
| 2026-05-06 10:22 | -26.16495 | 151.91030 | 28491 ft | 507 kts | 143° |
| 2026-05-06 10:22 | -26.19112 | 151.93644 | 27919 ft | 502 kts | 142° |
| 2026-05-06 10:22 | -26.21692 | 151.96226 | 27415 ft | 497 kts | 142° |
| 2026-05-06 10:23 | -26.24229 | 151.98769 | 26759 ft | 495 kts | 142° |
| 2026-05-06 10:23 | -26.26763 | 152.01312 | 26300 ft | 488 kts | 142° |
| 2026-05-06 10:23 | -26.29279 | 152.03838 | 25744 ft | 485 kts | 141° |
| 2026-05-06 10:23 | -26.31768 | 152.06338 | 25287 ft | 479 kts | 141° |
| 2026-05-06 10:24 | -26.34232 | 152.08812 | 24825 ft | 474 kts | 141° |
| 2026-05-06 10:24 | -26.36669 | 152.11263 | 24363 ft | 469 kts | 141° |
| 2026-05-06 10:24 | -26.39080 | 152.13692 | 23899 ft | 465 kts | 141° |
| 2026-05-06 10:24 | -26.41468 | 152.16096 | 23403 ft | 461 kts | 141° |
| 2026-05-06 10:25 | -26.43808 | 152.18454 | 22944 ft | 456 kts | 141° |
| 2026-05-06 10:25 | -26.46150 | 152.20813 | 22474 ft | 451 kts | 141° |
| 2026-05-06 10:25 | -26.48474 | 152.23151 | 22008 ft | 448 kts | 140° |
| 2026-05-06 10:25 | -26.50776 | 152.25467 | 21532 ft | 444 kts | 140° |
| 2026-05-06 10:26 | -26.53060 | 152.27767 | 21040 ft | 439 kts | 140° |
| 2026-05-06 10:26 | -26.55313 | 152.30044 | 20562 ft | 435 kts | 140° |
| 2026-05-06 10:26 | -26.57545 | 152.32303 | 20064 ft | 433 kts | 140° |
| 2026-05-06 10:26 | -26.59778 | 152.34562 | 19491 ft | 433 kts | 140° |
| 2026-05-06 10:27 | -26.61985 | 152.36795 | 19046 ft | 424 kts | 140° |
| 2026-05-06 10:27 | -26.64140 | 152.38975 | 18484 ft | 411 kts | 139° |
| 2026-05-06 10:27 | -26.66208 | 152.41091 | 17972 ft | 396 kts | 139° |
| 2026-05-06 10:27 | -26.68188 | 152.43139 | 17531 ft | 380 kts | 139° |
| 2026-05-06 10:28 | -26.70062 | 152.45082 | 17082 ft | 366 kts | 139° |
| 2026-05-06 10:28 | -26.71892 | 152.46981 | 16654 ft | 353 kts | 139° |
| 2026-05-06 10:28 | -26.73670 | 152.48822 | 16238 ft | 343 kts | 139° |
| 2026-05-06 10:28 | -26.75425 | 152.50637 | 15821 ft | 343 kts | 139° |
| 2026-05-06 10:29 | -26.77175 | 152.52444 | 15409 ft | 341 kts | 139° |
| 2026-05-06 10:29 | -26.78917 | 152.54236 | 15000 ft | 342 kts | 139° |
| 2026-05-06 10:29 | -26.80670 | 152.56044 | 14571 ft | 343 kts | 138° |
| 2026-05-06 10:29 | -26.82426 | 152.57858 | 14149 ft | 344 kts | 138° |
| 2026-05-06 10:30 | -26.84162 | 152.59658 | 13698 ft | 345 kts | 138° |
| 2026-05-06 10:30 | -26.85920 | 152.61484 | 13254 ft | 344 kts | 138° |
| 2026-05-06 10:30 | -26.87671 | 152.63302 | 12825 ft | 343 kts | 138° |
| 2026-05-06 10:30 | -26.89422 | 152.65117 | 12392 ft | 342 kts | 138° |
| 2026-05-06 10:31 | -26.91169 | 152.66923 | 11958 ft | 341 kts | 138° |
| 2026-05-06 10:31 | -26.92913 | 152.68725 | 11518 ft | 340 kts | 138° |
| 2026-05-06 10:31 | -26.94651 | 152.70522 | 11090 ft | 339 kts | 138° |
| 2026-05-06 10:31 | -26.96383 | 152.72312 | 10664 ft | 338 kts | 138° |
| 2026-05-06 10:32 | -26.98110 | 152.74090 | 10281 ft | 335 kts | 139° |
| 2026-05-06 10:32 | -26.99631 | 152.75963 | 10162 ft | 324 kts | 126° |
| 2026-05-06 10:32 | -27.00692 | 152.78140 | 10037 ft | 314 kts | 113° |
| 2026-05-06 10:32 | -27.01516 | 152.80367 | 9872 ft | 305 kts | 113° |
| 2026-05-06 10:33 | -27.02330 | 152.82554 | 9543 ft | 303 kts | 113° |
| 2026-05-06 10:33 | -27.03141 | 152.84724 | 9185 ft | 302 kts | 113° |
| 2026-05-06 10:33 | -27.03955 | 152.86894 | 8856 ft | 300 kts | 113° |
| 2026-05-06 10:33 | -27.04758 | 152.89041 | 8526 ft | 298 kts | 113° |
| 2026-05-06 10:34 | -27.05555 | 152.91180 | 8218 ft | 296 kts | 113° |
| 2026-05-06 10:34 | -27.06345 | 152.93302 | 7899 ft | 294 kts | 113° |
| 2026-05-06 10:34 | -27.07128 | 152.95414 | 7580 ft | 292 kts | 111° |
| 2026-05-06 10:34 | -27.07666 | 152.97602 | 7274 ft | 290 kts | 103° |
| 2026-05-06 10:35 | -27.08112 | 152.99802 | 6961 ft | 289 kts | 103° |
| 2026-05-06 10:35 | -27.08554 | 153.01963 | 6650 ft | 287 kts | 103° |
| 2026-05-06 10:35 | -27.09003 | 153.04133 | 6343 ft | 285 kts | 103° |
| 2026-05-06 10:35 | -27.09451 | 153.06290 | 6035 ft | 283 kts | 103° |
| 2026-05-06 10:36 | -27.09893 | 153.08435 | 5757 ft | 281 kts | 103° |
| 2026-05-06 10:36 | -27.10329 | 153.10564 | 5470 ft | 279 kts | 102° |
| 2026-05-06 10:36 | -27.10489 | 153.12727 | 5171 ft | 277 kts | 86° |
| 2026-05-06 10:36 | -27.10249 | 153.14806 | 4963 ft | 261 kts | 83° |
| 2026-05-06 10:37 | -27.10007 | 153.16779 | 4586 ft | 253 kts | 83° |
| 2026-05-06 10:37 | -27.09836 | 153.18721 | 4143 ft | 246 kts | 92° |
| 2026-05-06 10:37 | -27.10086 | 153.20596 | 3685 ft | 240 kts | 109° |
| 2026-05-06 10:37 | -27.10845 | 153.22194 | 3307 ft | 231 kts | 130° |
| 2026-05-06 10:38 | -27.12006 | 153.23314 | 3190 ft | 214 kts | 150° |
| 2026-05-06 10:38 | -27.13375 | 153.23877 | 3091 ft | 208 kts | 169° |
| 2026-05-06 10:38 | -27.14807 | 153.23872 | 3013 ft | 206 kts | 189° |
| 2026-05-06 10:38 | -27.16159 | 153.23320 | 3017 ft | 208 kts | 205° |
| 2026-05-06 10:39 | -27.17451 | 153.22582 | 3016 ft | 207 kts | 205° |
| 2026-05-06 10:39 | -27.18701 | 153.21868 | 3010 ft | 197 kts | 204° |
| 2026-05-06 10:39 | -27.19912 | 153.21178 | 3007 ft | 194 kts | 204° |
| 2026-05-06 10:39 | -27.21112 | 153.20495 | 3035 ft | 194 kts | 204° |
| 2026-05-06 10:40 | -27.22299 | 153.19819 | 2871 ft | 192 kts | 204° |
| 2026-05-06 10:40 | -27.23476 | 153.19148 | 2644 ft | 188 kts | 203° |
| 2026-05-06 10:40 | -27.24618 | 153.18496 | 2411 ft | 182 kts | 203° |
| 2026-05-06 10:40 | -27.25751 | 153.17850 | 2180 ft | 183 kts | 204° |
| 2026-05-06 10:41 | -27.26895 | 153.17198 | 1939 ft | 187 kts | 204° |
| 2026-05-06 10:41 | -27.28029 | 153.16551 | 1687 ft | 176 kts | 203° |
| 2026-05-06 10:41 | -27.29082 | 153.15950 | 1447 ft | 162 kts | 204° |
| 2026-05-06 10:41 | -27.30058 | 153.15392 | 1250 ft | 154 kts | 203° |
| 2026-05-06 10:42 | -27.31003 | 153.14853 | 1049 ft | 151 kts | 203° |
| 2026-05-06 10:42 | -27.31928 | 153.14326 | 868 ft | 147 kts | 204° |
| 2026-05-06 10:42 | -27.32816 | 153.13809 | 705 ft | 142 kts | 204° |
| 2026-05-06 10:42 | -27.33682 | 153.13303 | 509 ft | 142 kts | 205° |
| 2026-05-06 10:43 | -27.34562 | 153.12815 | 303 ft | 141 kts | 205° |
| 2026-05-06 10:43 | -27.35437 | 153.12322 | 125 ft | 141 kts | 205° |
| 2026-05-06 10:43 | -27.36295 | 153.11827 | 24 ft | 130 kts | 206° |
| 2026-05-06 10:44 | -27.37320 | 153.11246 | 22 ft | 36 kts | 206° |
| 2026-05-06 10:44 | -27.37551 | 153.11131 | 20 ft | 36 kts | 192° |
| 2026-05-06 10:44 | -27.37744 | 153.11129 | 20 ft | 22 kts | 179° |
| 2026-05-06 10:44 | -27.37838 | 153.11139 | 23 ft | 12 kts | 162° |
| 2026-05-06 10:45 | -27.37894 | 153.11213 | 22 ft | 14 kts | 101° |
| 2026-05-06 10:45 | -27.37817 | 153.11287 | 21 ft | 17 kts | 26° |
| 2026-05-06 10:45 | -27.37694 | 153.11358 | 21 ft | 23 kts | 27° |
| 2026-05-06 10:45 | -27.37552 | 153.11440 | 23 ft | 16 kts | 27° |
| 2026-05-06 10:46 | -27.37467 | 153.11486 | 23 ft | 14 kts | 26° |
| 2026-05-06 10:46 | -27.37452 | 153.11495 | 24 ft | 0 kts | 26° |
| 2026-05-06 10:47 | -27.37443 | 153.11500 | 21 ft | 5 kts | 26° |
| 2026-05-06 10:47 | -27.37390 | 153.11530 | 23 ft | 11 kts | 27° |
| 2026-05-06 10:47 | -27.37355 | 153.11553 | 21 ft | 0 kts | 33° |
| 2026-05-06 10:48 | -27.37331 | 153.11575 | 21 ft | 8 kts | 50° |
| 2026-05-06 10:48 | -27.37346 | 153.11661 | 21 ft | 16 kts | 116° |
| 2026-05-06 10:48 | -27.37407 | 153.11796 | 21 ft | 23 kts | 118° |
| 2026-05-06 10:48 | -27.37479 | 153.11951 | 22 ft | 23 kts | 117° |
| 2026-05-06 10:49 | -27.37558 | 153.12121 | 21 ft | 26 kts | 116° |
| 2026-05-06 10:49 | -27.37640 | 153.12301 | 22 ft | 26 kts | 117° |
| 2026-05-06 10:49 | -27.37688 | 153.12408 | 21 ft | 1 kts | 116° |
| 2026-05-06 10:49 | -27.37700 | 153.12436 | 21 ft | 7 kts | 116° |
| 2026-05-06 10:50 | -27.37729 | 153.12502 | 21 ft | 12 kts | 117° |
| 2026-05-06 10:50 | -27.37774 | 153.12599 | 21 ft | 12 kts | 117° |
| 2026-05-06 10:50 | -27.37800 | 153.12655 | 22 ft | 10 kts | 117° |
| 2026-05-06 10:50 | -27.37839 | 153.12740 | 22 ft | 13 kts | 118° |
| 2026-05-06 10:51 | -27.37900 | 153.12812 | 22 ft | 14 kts | 177° |
| 2026-05-06 10:51 | -27.37999 | 153.12762 | 23 ft | 17 kts | 207° |
| 2026-05-06 10:51 | -27.38113 | 153.12696 | 23 ft | 20 kts | 207° |
| 2026-05-06 10:51 | -27.38243 | 153.12621 | 23 ft | 22 kts | 207° |
| 2026-05-06 10:52 | -27.38381 | 153.12542 | 21 ft | 23 kts | 206° |
| 2026-05-06 10:52 | -27.38488 | 153.12480 | 21 ft | 16 kts | 206° |
| 2026-05-06 10:52 | -27.38596 | 153.12420 | 21 ft | 19 kts | 206° |
| 2026-05-06 10:52 | -27.38719 | 153.12351 | 23 ft | 21 kts | 207° |
| 2026-05-06 10:53 | -27.38794 | 153.12286 | 21 ft | 12 kts | 248° |
| 2026-05-06 10:53 | -27.38779 | 153.12195 | 24 ft | 10 kts | 285° |
| 2026-05-06 10:53 | -27.38755 | 153.12121 | 21 ft | 9 kts | 297° |
| 2026-05-06 10:53 | -27.38753 | 153.12054 | 21 ft | 9 kts | 246° |
| 2026-05-06 10:54 | -27.38767 | 153.11991 | 21 ft | 7 kts | 269° |
| 2026-05-06 10:54 | -27.38733 | 153.11953 | 21 ft | 6 kts | 343° |
| 2026-05-06 10:54 | -27.38716 | 153.11945 | 21 ft | 1 kts | 335° |
| 2026-05-06 10:54 | -27.38715 | 153.11944 | 21 ft | 0 kts | 335° |